createdAt,value
2018-08-16T00:01:16.569Z,101241.03
2018-08-16T00:03:44.094Z,101237.58
2018-08-16T00:06:11.644Z,101242.78
2018-08-16T00:08:39.190Z,101235.03
2018-08-16T00:11:06.703Z,101238.47
2018-08-16T00:13:34.236Z,101236.32
2018-08-16T00:16:01.772Z,101241.49
2018-08-16T00:18:29.310Z,101237.64
2018-08-16T00:20:56.843Z,101232.06
2018-08-16T00:23:24.391Z,101233.79
2018-08-16T00:25:51.902Z,101234.24
2018-08-16T00:28:19.439Z,101236.45
2018-08-16T00:30:46.949Z,101231.26
2018-08-16T00:33:14.492Z,101233.02
2018-08-16T00:35:42.021Z,101232.17
2018-08-16T00:38:09.555Z,101230.42
2018-08-16T00:40:37.072Z,101233.44
2018-08-16T00:43:04.623Z,101229.53
2018-08-16T00:45:32.128Z,101232.53
2018-08-16T00:47:59.663Z,101230.31
2018-08-16T00:50:27.172Z,101227.76
2018-08-16T00:52:54.701Z,101228.22
2018-08-16T00:55:22.198Z,101227.76
2018-08-16T00:57:49.731Z,101225.58
2018-08-16T01:00:17.558Z,101218.22
2018-08-16T01:02:45.448Z,101222.55
2018-08-16T01:05:13.386Z,101214.33
2018-08-16T01:07:41.013Z,101216.92
2018-08-16T01:10:09.331Z,101214.80
2018-08-16T01:12:36.848Z,101216.06
2018-08-16T01:15:05.300Z,101217.75
2018-08-16T01:17:32.836Z,101219.91
2018-08-16T01:20:00.362Z,101212.11
2018-08-16T01:22:27.908Z,101208.63
2018-08-16T01:24:55.440Z,101209.49
2018-08-16T01:27:22.988Z,101209.03
2018-08-16T01:29:50.497Z,101210.75
2018-08-16T01:32:18.043Z,101207.70
2018-08-16T01:34:45.539Z,101207.70
2018-08-16T01:37:13.091Z,101211.19
2018-08-16T01:39:40.604Z,101208.59
2018-08-16T01:42:08.120Z,101211.15
2018-08-16T01:44:35.656Z,101215.03
2018-08-16T01:47:03.151Z,101209.86
2018-08-16T01:49:33.148Z,101213.30
2018-08-16T01:52:00.732Z,101210.78
2018-08-16T01:54:28.873Z,101211.72
2018-08-16T01:56:56.508Z,101209.16
2018-08-16T01:59:24.054Z,101206.17
2018-08-16T02:01:52.139Z,101202.27
2018-08-16T02:04:19.725Z,101201.38
2018-08-16T02:06:47.671Z,101205.28
2018-08-16T02:09:15.227Z,101200.11
2018-08-16T02:11:42.741Z,101195.34
2018-08-16T02:14:10.268Z,101192.31
2018-08-16T02:16:38.308Z,101196.63
2018-08-16T02:19:05.895Z,101193.14
2018-08-16T02:21:33.412Z,101187.50
2018-08-16T02:24:01.416Z,101187.50
2018-08-16T02:26:28.956Z,101189.66
2018-08-16T02:28:56.479Z,101189.27
2018-08-16T02:31:23.988Z,101191.42
2018-08-16T02:33:51.662Z,101190.55
2018-08-16T02:36:19.182Z,101189.23
2018-08-16T02:38:46.708Z,101192.20
2018-08-16T02:41:14.220Z,101193.97
2018-08-16T02:43:41.745Z,101187.97
2018-08-16T02:46:09.479Z,101186.25
2018-08-16T02:48:37.048Z,101195.27
2018-08-16T02:51:04.569Z,101189.66
2018-08-16T02:53:32.109Z,101189.19
2018-08-16T02:55:59.652Z,101193.11
2018-08-16T02:58:27.219Z,101188.80
2018-08-16T03:00:54.731Z,101189.23
2018-08-16T03:03:22.270Z,101188.33
2018-08-16T03:05:49.792Z,101184.91
2018-08-16T03:08:17.340Z,101186.14
2018-08-16T03:10:44.848Z,101179.63
2018-08-16T03:13:12.363Z,101177.47
2018-08-16T03:15:39.912Z,101175.78
2018-08-16T03:18:07.496Z,101173.63
2018-08-16T03:20:35.032Z,101171.98
2018-08-16T03:23:02.547Z,101170.64
2018-08-16T03:25:30.337Z,101166.41
2018-08-16T03:27:57.855Z,101164.25
2018-08-16T03:30:25.384Z,101162.50
2018-08-16T03:32:52.903Z,101160.77
2018-08-16T03:35:20.509Z,101161.63
2018-08-16T03:37:47.958Z,101155.56
2018-08-16T03:40:15.516Z,101153.01
2018-08-16T03:42:43.043Z,101150.85
2018-08-16T03:45:10.576Z,101155.55
2018-08-16T03:47:38.377Z,101158.58
2018-08-16T03:50:06.036Z,101154.27
2018-08-16T03:52:33.627Z,101155.13
2018-08-16T03:55:01.191Z,101152.93
2018-08-16T03:57:28.696Z,101151.63
2018-08-16T03:59:56.229Z,101151.20
2018-08-16T04:02:23.738Z,101156.81
2018-08-16T04:04:51.268Z,101146.92
2018-08-16T04:07:18.817Z,101146.92
2018-08-16T04:09:46.327Z,101148.62
2018-08-16T04:12:13.844Z,101150.77
2018-08-16T04:14:41.385Z,101145.59
2018-08-16T04:17:08.946Z,101153.75
2018-08-16T04:19:36.485Z,101154.66
2018-08-16T04:22:04.004Z,101152.54
2018-08-16T04:24:31.532Z,101145.20
2018-08-16T04:26:59.044Z,101144.30
2018-08-16T04:29:26.592Z,101149.48
2018-08-16T04:31:54.116Z,101152.06
2018-08-16T04:34:21.632Z,101153.35
2018-08-16T04:36:49.167Z,101152.50
2018-08-16T04:39:16.691Z,101153.36
2018-08-16T04:41:44.448Z,101157.70
2018-08-16T04:44:11.769Z,101156.89
2018-08-16T04:46:39.295Z,101160.34
2018-08-16T04:49:06.832Z,101158.22
2018-08-16T04:51:34.372Z,101156.92
2018-08-16T04:54:01.875Z,101158.19
2018-08-16T04:56:29.412Z,101163.83
2018-08-16T04:58:56.924Z,101156.14
2018-08-16T05:01:24.456Z,101151.00
2018-08-16T05:03:51.964Z,101152.80
2018-08-16T05:06:19.488Z,101155.81
2018-08-16T05:08:46.992Z,101156.21
2018-08-16T05:11:14.570Z,101155.23
2018-08-16T05:13:42.087Z,101156.92
2018-08-16T05:16:09.613Z,101164.14
2018-08-16T05:18:37.216Z,101155.86
2018-08-16T05:21:04.747Z,101157.58
2018-08-16T05:23:32.255Z,101160.56
2018-08-16T05:25:59.768Z,101158.92
2018-08-16T05:28:27.295Z,101159.31
2018-08-16T05:30:54.811Z,101158.92
2018-08-16T05:33:22.383Z,101159.31
2018-08-16T05:35:49.892Z,101158.41
2018-08-16T05:38:17.424Z,101164.05
2018-08-16T05:40:44.923Z,101155.34
2018-08-16T05:43:12.524Z,101159.70
2018-08-16T05:45:39.983Z,101158.78
2018-08-16T05:48:07.524Z,101157.32
2018-08-16T05:50:35.252Z,101151.50
2018-08-16T05:53:02.770Z,101149.77
2018-08-16T05:55:30.264Z,101148.36
2018-08-16T05:57:57.784Z,101148.19
2018-08-16T06:00:25.279Z,101149.72
2018-08-16T06:02:52.872Z,101148.25
2018-08-16T06:05:20.375Z,101144.06
2018-08-16T06:07:47.908Z,101149.98
2018-08-16T06:10:15.411Z,101144.17
2018-08-16T06:12:43.062Z,101147.00
2018-08-16T06:15:10.680Z,101142.58
2018-08-16T06:17:38.216Z,101136.55
2018-08-16T06:20:07.132Z,101142.53
2018-08-16T06:22:34.635Z,101140.42
2018-08-16T06:25:02.163Z,101142.63
2018-08-16T06:27:29.691Z,101138.61
2018-08-16T06:29:57.211Z,101124.57
2018-08-16T06:32:24.715Z,101130.88
2018-08-16T06:34:52.235Z,101129.26
2018-08-16T06:37:19.743Z,101126.27
2018-08-16T06:39:47.271Z,101124.26
2018-08-16T06:42:14.788Z,101122.51
2018-08-16T06:44:42.307Z,101120.89
2018-08-16T06:47:13.695Z,101120.66
2018-08-16T06:49:41.240Z,101118.69
2018-08-16T06:52:08.752Z,101114.81
2018-08-16T06:54:36.273Z,101108.24
2018-08-16T06:57:03.772Z,101110.30
2018-08-16T06:59:31.308Z,101114.39
2018-08-16T07:01:58.816Z,101105.61
2018-08-16T07:04:26.392Z,101109.63
2018-08-16T07:06:53.892Z,101106.31
2018-08-16T07:09:21.414Z,101102.45
2018-08-16T07:11:48.910Z,101102.64
2018-08-16T07:14:16.447Z,101104.61
2018-08-16T07:16:43.947Z,101098.34
2018-08-16T07:19:11.827Z,101104.67
2018-08-16T07:21:39.333Z,101106.09
2018-08-16T07:24:06.859Z,101104.14
2018-08-16T07:26:34.430Z,101100.91
2018-08-16T07:29:01.957Z,101107.86
2018-08-16T07:31:29.450Z,101102.73
2018-08-16T07:33:57.021Z,101097.89
2018-08-16T07:36:24.548Z,101098.47
2018-08-16T07:38:52.055Z,101103.28
2018-08-16T07:41:19.640Z,101098.47
2018-08-16T07:43:47.159Z,101099.13
2018-08-16T07:46:14.806Z,101099.28
2018-08-16T07:48:42.307Z,101098.39
2018-08-16T07:51:09.874Z,101097.03
2018-08-16T07:53:37.364Z,101099.69
2018-08-16T07:56:04.967Z,101101.13
2018-08-16T07:58:32.615Z,101093.27
2018-08-16T08:01:00.071Z,101097.80
2018-08-16T08:03:27.672Z,101092.02
2018-08-16T08:05:55.215Z,101088.52
2018-08-16T08:08:22.722Z,101088.27
2018-08-16T08:10:50.252Z,101085.78
2018-08-16T08:13:17.759Z,101092.50
2018-08-16T08:15:45.373Z,101091.84
2018-08-16T08:18:12.884Z,101088.50
2018-08-16T08:20:40.408Z,101089.70
2018-08-16T08:23:08.450Z,101075.98
2018-08-16T08:25:36.012Z,101076.27
2018-08-16T08:28:03.527Z,101077.83
2018-08-16T08:30:31.055Z,101074.25
2018-08-16T08:32:58.558Z,101069.87
2018-08-16T08:35:26.103Z,101072.03
2018-08-16T08:37:59.672Z,101064.17
2018-08-16T08:40:27.197Z,101064.61
2018-08-16T08:42:54.908Z,101059.70
2018-08-16T08:45:22.447Z,101060.63
2018-08-16T08:47:54.192Z,101058.13
2018-08-16T08:50:21.831Z,101053.84
2018-08-16T08:52:49.280Z,101050.67
2018-08-16T08:55:22.520Z,101039.02
2018-08-16T08:57:55.691Z,101038.32
2018-08-16T09:00:24.288Z,101035.70
2018-08-16T09:02:51.805Z,101040.59
2018-08-16T09:05:19.331Z,101035.05
2018-08-16T09:07:46.843Z,101028.65
2018-08-16T09:11:18.516Z,101031.13
2018-08-16T09:13:53.000Z,101029.22
2018-08-16T09:16:21.251Z,101025.66
2018-08-16T09:18:48.763Z,101023.88
2018-08-16T09:21:16.664Z,101019.75
2018-08-16T09:23:44.234Z,101024.53
2018-08-16T09:26:17.063Z,101023.16
2018-08-16T09:28:44.569Z,101027.66
2018-08-16T09:31:18.016Z,101017.70
2018-08-16T09:33:51.019Z,101017.44
2018-08-16T09:36:18.572Z,101018.48
2018-08-16T09:38:46.083Z,101017.58
2018-08-16T09:41:13.603Z,101005.89
2018-08-16T09:43:41.147Z,101006.94
2018-08-16T09:47:12.591Z,101002.11
2018-08-16T09:49:42.476Z,100996.89
2018-08-16T09:52:10.668Z,100995.80
2018-08-16T09:54:38.222Z,100988.91
2018-08-16T09:57:06.927Z,100987.45
2018-08-16T09:59:34.442Z,100994.55
2018-08-16T10:02:02.001Z,100988.95
2018-08-16T10:04:29.875Z,100988.64
2018-08-16T10:06:57.550Z,100991.70
2018-08-16T10:09:26.140Z,100984.64
2018-08-16T10:11:54.083Z,100981.57
2018-08-16T10:14:21.871Z,100981.02
2018-08-16T10:16:49.392Z,100977.69
2018-08-16T10:19:16.919Z,100974.94
2018-08-16T10:21:44.444Z,100962.63
2018-08-16T10:24:11.971Z,100965.05
2018-08-16T10:26:39.546Z,100963.59
2018-08-16T10:29:07.421Z,100962.95
2018-08-16T10:31:34.931Z,100956.90
2018-08-16T10:34:02.988Z,100951.66
2018-08-16T10:36:30.496Z,100958.73
2018-08-16T10:38:58.037Z,100954.67
2018-08-16T10:41:25.543Z,100955.31
2018-08-16T10:43:53.092Z,100961.44
2018-08-16T10:46:20.640Z,100950.50
2018-08-16T10:48:48.199Z,100944.99
2018-08-16T10:51:15.708Z,100946.16
2018-08-16T10:53:43.256Z,100946.80
2018-08-16T10:56:10.761Z,100946.82
2018-08-16T10:58:38.299Z,100940.84
2018-08-16T11:01:05.813Z,100939.56
2018-08-16T11:03:33.352Z,100940.23
2018-08-16T11:06:00.859Z,100936.28
2018-08-16T11:08:28.395Z,100937.92
2018-08-16T11:10:55.903Z,100929.44
2018-08-16T11:13:23.464Z,100934.91
2018-08-16T11:15:50.972Z,100925.20
2018-08-16T11:18:18.507Z,100922.75
2018-08-16T11:20:46.018Z,100924.45
2018-08-16T11:23:13.624Z,100925.08
2018-08-16T11:25:41.143Z,100913.72
2018-08-16T11:28:09.100Z,100920.05
2018-08-16T11:30:36.879Z,100904.17
2018-08-16T11:33:04.417Z,100909.95
2018-08-16T11:35:31.947Z,100905.94
2018-08-16T11:37:59.596Z,100902.91
2018-08-16T11:40:27.068Z,100901.05
2018-08-16T11:42:54.592Z,100901.68
2018-08-16T11:45:22.132Z,100901.52
2018-08-16T11:47:49.655Z,100901.75
2018-08-16T11:50:17.215Z,100897.98
2018-08-16T11:52:44.731Z,100888.10
2018-08-16T11:55:12.268Z,100885.54
2018-08-16T11:57:39.776Z,100888.08
2018-08-16T12:00:07.359Z,100888.00
2018-08-16T12:02:34.893Z,100880.80
2018-08-16T12:05:02.422Z,100881.69
2018-08-16T12:07:29.929Z,100879.62
2018-08-16T12:09:57.476Z,100882.55
2018-08-16T12:12:25.004Z,100880.02
2018-08-16T12:14:52.533Z,100877.18
2018-08-16T12:17:20.044Z,100866.74
2018-08-16T12:19:47.563Z,100870.93
2018-08-16T12:22:15.072Z,100859.39
2018-08-16T12:24:42.636Z,100867.42
2018-08-16T12:27:11.086Z,100858.86
2018-08-16T12:29:38.622Z,100860.31
2018-08-16T12:32:06.133Z,100858.02
2018-08-16T12:34:34.028Z,100856.55
2018-08-16T12:37:01.567Z,100855.27
2018-08-16T12:39:29.096Z,100854.72
2018-08-16T12:41:56.679Z,100859.73
2018-08-16T12:44:24.233Z,100845.00
2018-08-16T12:46:51.767Z,100848.22
2018-08-16T12:49:19.320Z,100839.63
2018-08-16T12:51:46.881Z,100836.99
2018-08-16T12:54:14.449Z,100826.30
2018-08-16T12:56:41.997Z,100828.33
2018-08-16T12:59:09.526Z,100827.45
2018-08-16T13:01:37.074Z,100822.00
2018-08-16T13:04:04.760Z,100816.95
2018-08-16T13:06:32.369Z,100815.37
2018-08-16T13:08:59.957Z,100813.05
2018-08-16T13:11:27.455Z,100807.91
2018-08-16T13:13:54.976Z,100805.47
2018-08-16T13:16:22.520Z,100806.05
2018-08-16T13:18:50.028Z,100805.95
2018-08-16T13:21:17.556Z,100805.59
2018-08-16T13:23:45.170Z,100801.34
2018-08-16T13:26:12.652Z,100796.30
2018-08-16T13:28:40.183Z,100795.84
2018-08-16T13:31:07.726Z,100790.90
2018-08-16T13:33:35.248Z,100787.60
2018-08-16T13:36:02.791Z,100795.30
2018-08-16T13:38:30.304Z,100786.02
2018-08-16T13:40:57.863Z,100783.54
2018-08-16T13:43:25.392Z,100784.97
2018-08-16T13:45:52.980Z,100780.48
2018-08-16T13:48:20.624Z,100786.32
2018-08-16T13:50:48.208Z,100781.25
2018-08-16T13:53:15.719Z,100777.70
2018-08-16T13:55:43.263Z,100777.50
2018-08-16T13:58:10.900Z,100774.70
2018-08-16T14:00:38.533Z,100767.75
2018-08-16T14:03:06.171Z,100771.39
2018-08-16T14:05:33.853Z,100766.89
2018-08-16T14:08:01.972Z,100765.96
2018-08-16T14:10:29.600Z,100764.73
2018-08-16T14:12:57.318Z,100764.23
2018-08-16T14:15:24.871Z,100761.55
2018-08-16T14:17:52.411Z,100762.18
2018-08-16T14:20:19.959Z,100758.13
2018-08-16T14:22:47.535Z,100759.55
2018-08-16T14:25:15.100Z,100757.03
2018-08-16T14:27:42.641Z,100751.38
2018-08-16T14:30:10.199Z,100749.42
2018-08-16T14:32:37.980Z,100744.42
2018-08-16T14:35:05.545Z,100746.96
2018-08-16T14:37:33.084Z,100747.48
2018-08-16T14:40:00.604Z,100748.80
2018-08-16T14:42:28.221Z,100746.90
2018-08-16T14:44:55.815Z,100738.00
2018-08-16T14:47:23.728Z,100741.85
2018-08-16T14:49:51.279Z,100744.46
2018-08-16T14:52:18.837Z,100738.64
2018-08-16T14:54:46.355Z,100730.36
2018-08-16T14:57:13.899Z,100739.64
2018-08-16T14:59:41.416Z,100738.71
2018-08-16T15:02:08.969Z,100736.27
2018-08-16T15:04:36.483Z,100742.28
2018-08-16T15:07:04.916Z,100741.59
2018-08-16T15:09:32.484Z,100736.63
2018-08-16T15:12:00.027Z,100741.81
2018-08-16T15:14:27.540Z,100729.78
2018-08-16T15:16:55.072Z,100736.36
2018-08-16T15:19:22.588Z,100737.31
2018-08-16T15:21:50.204Z,100740.72
2018-08-16T15:24:19.220Z,100729.44
2018-08-16T15:26:47.183Z,100732.25
2018-08-16T15:29:14.704Z,100737.69
2018-08-16T15:31:42.299Z,100724.53
2018-08-16T15:34:09.836Z,100730.44
2018-08-16T15:36:37.376Z,100732.55
2018-08-16T15:39:06.233Z,100723.02
2018-08-16T15:41:33.755Z,100723.39
2018-08-16T15:44:02.163Z,100727.17
2018-08-16T15:46:29.716Z,100728.55
2018-08-16T15:48:57.251Z,100724.22
2018-08-16T15:51:24.791Z,100728.44
2018-08-16T15:53:52.297Z,100720.19
2018-08-16T15:56:19.839Z,100723.18
2018-08-16T15:58:47.370Z,100725.42
2018-08-16T16:01:15.076Z,100726.55
2018-08-16T16:03:42.631Z,100725.05
2018-08-16T16:06:10.310Z,100718.83
2018-08-16T16:08:37.717Z,100725.70
2018-08-16T16:11:05.284Z,100722.35
2018-08-16T16:13:32.824Z,100728.14
2018-08-16T16:16:00.328Z,100724.41
2018-08-16T16:18:27.866Z,100727.03
2018-08-16T16:20:55.376Z,100719.51
2018-08-16T16:23:22.935Z,100719.81
2018-08-16T16:25:50.473Z,100719.06
2018-08-16T16:28:18.007Z,100715.12
2018-08-16T16:30:45.567Z,100716.71
2018-08-16T16:33:13.115Z,100714.55
2018-08-16T16:35:40.636Z,100715.48
2018-08-16T16:38:08.180Z,100712.82
2018-08-16T16:40:35.800Z,100706.44
2018-08-16T16:43:03.339Z,100707.18
2018-08-16T16:45:30.875Z,100709.59
2018-08-16T16:47:58.414Z,100704.48
2018-08-16T16:50:26.021Z,100705.34
2018-08-16T16:52:53.583Z,100701.92
2018-08-16T16:55:21.089Z,100707.80
2018-08-16T16:57:48.608Z,100704.48
2018-08-16T17:00:16.111Z,100694.67
2018-08-16T17:02:43.660Z,100700.59
2018-08-16T17:05:11.455Z,100697.11
2018-08-16T17:07:39.064Z,100693.51
2018-08-16T17:10:07.466Z,100704.45
2018-08-16T17:12:34.992Z,100705.83
2018-08-16T17:15:02.532Z,100706.22
2018-08-16T17:17:30.060Z,100703.67
2018-08-16T17:19:57.660Z,100707.06
2018-08-16T17:22:25.228Z,100707.05
2018-08-16T17:24:52.808Z,100708.31
2018-08-16T17:27:20.368Z,100706.20
2018-08-16T17:29:47.882Z,100712.65
2018-08-16T17:33:29.502Z,100711.14
2018-08-16T17:36:16.543Z,100706.81
2018-08-16T17:38:44.067Z,100703.98
2018-08-16T17:41:11.632Z,100705.48
2018-08-16T17:43:39.172Z,100705.91
2018-08-16T17:46:06.688Z,100713.91
2018-08-16T17:48:34.272Z,100713.62
2018-08-16T17:51:01.797Z,100716.42
2018-08-16T17:53:29.330Z,100717.41
2018-08-16T18:19:48.443Z,100732.28
2018-08-16T18:22:15.992Z,100732.92
2018-08-16T18:24:43.537Z,100736.52
2018-08-16T18:27:11.054Z,100738.66
2018-08-16T18:32:57.280Z,100761.98
2018-08-16T18:38:41.237Z,100747.39
2018-08-16T18:41:09.993Z,100750.22
2018-08-16T18:43:38.276Z,100752.67
2018-08-16T18:46:06.812Z,100751.44
2018-08-16T18:48:35.205Z,100758.59
2018-08-16T18:51:03.440Z,100764.24
2018-08-16T18:53:31.726Z,100760.50
2018-08-16T18:56:00.029Z,100768.96
2018-08-16T18:58:28.308Z,100770.69
2018-08-16T19:00:56.545Z,100771.12
2018-08-16T19:03:24.860Z,100778.21
2018-08-16T19:05:53.085Z,100784.29
2018-08-16T19:08:21.416Z,100778.05
2018-08-16T19:10:49.651Z,100784.68
2018-08-16T19:13:17.956Z,100789.65
2018-08-16T19:15:46.332Z,100784.03
2018-08-16T19:18:14.568Z,100791.66
2018-08-16T19:20:43.029Z,100791.70
2018-08-16T19:23:11.329Z,100793.21
2018-08-16T19:25:39.647Z,100791.05
2018-08-16T19:28:07.895Z,100793.14
2018-08-16T19:30:36.156Z,100793.92
2018-08-16T19:33:04.429Z,100798.39
2018-08-16T19:35:32.684Z,100802.64
2018-08-16T19:38:00.949Z,100806.97
2018-08-16T19:40:29.208Z,100806.75
2018-08-16T19:42:57.436Z,100801.48
2018-08-16T19:45:25.733Z,100808.05
2018-08-16T19:47:53.973Z,100806.36
2018-08-16T19:50:22.280Z,100812.63
2018-08-16T19:52:50.526Z,100812.66
2018-08-16T19:55:18.809Z,100814.37
2018-08-16T19:57:47.288Z,100819.28
2018-08-16T20:00:15.569Z,100825.83
2018-08-16T20:02:43.808Z,100824.92
2018-08-16T20:05:12.041Z,100832.28
2018-08-16T20:07:40.264Z,100830.33
2018-08-16T20:10:09.496Z,100836.36
2018-08-16T20:12:38.032Z,100832.19
2018-08-16T20:15:07.315Z,100836.30
2018-08-16T20:17:36.302Z,100834.53
2018-08-16T20:20:06.096Z,100838.31
2018-08-16T20:22:34.664Z,100840.91
2018-08-16T20:25:03.661Z,100848.55
2018-08-16T20:27:31.908Z,100846.20
2018-08-16T20:30:00.316Z,100852.36
2018-08-16T20:32:28.584Z,100850.69
2018-08-16T20:34:57.012Z,100849.92
2018-08-16T20:37:25.248Z,100855.53
2018-08-16T20:39:53.692Z,100860.31
2018-08-16T20:42:21.924Z,100858.76
2018-08-16T20:44:50.201Z,100856.14
2018-08-16T20:47:18.424Z,100861.53
2018-08-16T20:49:46.776Z,100861.65
2018-08-16T20:52:15.096Z,100861.45
2018-08-16T20:54:43.367Z,100865.39
2018-08-16T20:57:11.671Z,100866.97
2018-08-16T20:59:39.937Z,100867.11
2018-08-16T21:02:08.238Z,100877.34
2018-08-16T21:04:36.668Z,100870.05
2018-08-16T21:07:05.202Z,100870.58
2018-08-16T21:09:33.556Z,100873.40
2018-08-16T21:12:01.884Z,100879.00
2018-08-16T21:14:30.149Z,100878.18
2018-08-16T21:16:58.408Z,100873.52
2018-08-16T21:19:26.921Z,100877.59
2018-08-16T21:21:55.184Z,100874.97
2018-08-16T21:24:23.431Z,100878.09
2018-08-16T21:26:51.801Z,100872.20
2018-08-16T21:29:20.037Z,100879.66
2018-08-16T21:31:48.304Z,100882.42
2018-08-16T21:34:16.612Z,100881.16
2018-08-16T21:36:44.866Z,100888.05
2018-08-16T21:39:13.470Z,100887.84
2018-08-16T21:41:41.732Z,100889.34
2018-08-16T21:44:10.829Z,100899.12
2018-08-16T21:46:39.088Z,100896.64
2018-08-16T21:51:44.948Z,100902.67
2018-08-16T21:54:13.188Z,100902.78
2018-08-16T21:56:41.456Z,100903.16
2018-08-16T21:59:09.716Z,100902.67
2018-08-16T22:01:37.975Z,100900.66
2018-08-16T22:04:06.204Z,100909.01
2018-08-16T22:06:45.664Z,100904.17
2018-08-16T22:09:13.932Z,100905.19
2018-08-16T22:11:42.180Z,100908.75
2018-08-16T22:14:10.449Z,100905.64
2018-08-16T22:16:38.696Z,100910.24
2018-08-16T22:19:06.928Z,100902.81
2018-08-16T22:21:35.278Z,100904.20
2018-08-16T22:24:03.528Z,100900.70
2018-08-16T22:26:31.776Z,100900.16
2018-08-16T22:29:00.010Z,100904.89
2018-08-16T22:31:28.292Z,100900.98
2018-08-16T22:33:56.585Z,100910.80
2018-08-16T22:36:24.807Z,100915.03
2018-08-16T22:38:53.057Z,100911.48
2018-08-16T22:41:21.327Z,100916.56
2018-08-16T22:43:49.589Z,100915.98
2018-08-16T22:46:17.831Z,100917.17
2018-08-16T22:48:46.076Z,100910.19
2018-08-16T22:51:14.352Z,100908.28
2018-08-16T22:53:42.588Z,100904.36
2018-08-16T22:56:10.852Z,100909.91
2018-08-16T22:58:39.115Z,100903.78
2018-08-16T23:01:07.513Z,100899.01
2018-08-16T23:03:35.780Z,100898.61
2018-08-16T23:06:04.024Z,100891.67
2018-08-16T23:08:32.276Z,100890.89
2018-08-16T23:11:00.524Z,100889.23
2018-08-16T23:13:28.812Z,100885.36
2018-08-16T23:15:57.052Z,100885.44
2018-08-16T23:18:25.366Z,100887.30
2018-08-16T23:20:53.646Z,100887.42
2018-08-16T23:23:21.897Z,100883.72
2018-08-16T23:25:50.132Z,100879.03
2018-08-16T23:28:18.439Z,100876.47
2018-08-16T23:30:46.688Z,100880.24
2018-08-16T23:33:14.932Z,100877.75
2018-08-16T23:35:43.172Z,100878.25
2018-08-16T23:38:11.428Z,100873.65
2018-08-16T23:40:39.712Z,100880.63
2018-08-16T23:43:08.324Z,100878.75
2018-08-16T23:45:36.560Z,100877.17
2018-08-16T23:48:16.316Z,100872.78
2018-08-16T23:50:44.580Z,100868.79
2018-08-16T23:53:12.851Z,100867.80
2018-08-16T23:55:41.089Z,100869.43
2018-08-16T23:58:09.356Z,100877.78
